sensor_id;sensor_type;location;lat;lon;timestamp;P1;durP1;ratioP1;P2;durP2;ratioP2
51901;SDS011;37929;53.218;6.548;2023-05-10T00:01:47;12.52;;;8.55;;
51901;SDS011;37929;53.218;6.548;2023-05-10T00:04:12;14.05;;;9.07;;
51901;SDS011;37929;53.218;6.548;2023-05-10T00:06:38;13.68;;;9.15;;
51901;SDS011;37929;53.218;6.548;2023-05-10T00:09:07;15.20;;;9.05;;
51901;SDS011;37929;53.218;6.548;2023-05-10T00:11:32;14.32;;;8.30;;
51901;SDS011;37929;53.218;6.548;2023-05-10T00:13:58;14.70;;;8.55;;
51901;SDS011;37929;53.218;6.548;2023-05-10T00:16:24;13.60;;;8.80;;
51901;SDS011;37929;53.218;6.548;2023-05-10T00:18:50;14.45;;;8.93;;
51901;SDS011;37929;53.218;6.548;2023-05-10T00:21:19;14.57;;;8.65;;
51901;SDS011;37929;53.218;6.548;2023-05-10T00:23:45;14.15;;;9.00;;
51901;SDS011;37929;53.218;6.548;2023-05-10T00:26:10;13.23;;;8.25;;
51901;SDS011;37929;53.218;6.548;2023-05-10T00:28:36;13.05;;;8.00;;
51901;SDS011;37929;53.218;6.548;2023-05-10T00:31:02;14.45;;;8.43;;
51901;SDS011;37929;53.218;6.548;2023-05-10T00:33:28;10.95;;;7.20;;
51901;SDS011;37929;53.218;6.548;2023-05-10T00:35:53;11.70;;;7.15;;
51901;SDS011;37929;53.218;6.548;2023-05-10T00:38:19;10.93;;;6.63;;
51901;SDS011;37929;53.218;6.548;2023-05-10T00:40:45;11.98;;;7.20;;
51901;SDS011;37929;53.218;6.548;2023-05-10T00:43:11;11.57;;;7.05;;
51901;SDS011;37929;53.218;6.548;2023-05-10T00:45:36;11.15;;;6.50;;
51901;SDS011;37929;53.218;6.548;2023-05-10T00:48:05;10.68;;;6.68;;
51901;SDS011;37929;53.218;6.548;2023-05-10T00:50:31;9.85;;;6.47;;
51901;SDS011;37929;53.218;6.548;2023-05-10T00:52:58;11.65;;;6.57;;
51901;SDS011;37929;53.218;6.548;2023-05-10T00:55:25;10.13;;;6.10;;
51901;SDS011;37929;53.218;6.548;2023-05-10T00:57:52;10.30;;;6.30;;
51901;SDS011;37929;53.218;6.548;2023-05-10T01:00:18;9.57;;;6.10;;
51901;SDS011;37929;53.218;6.548;2023-05-10T01:02:45;8.43;;;5.40;;
51901;SDS011;37929;53.218;6.548;2023-05-10T01:05:11;9.98;;;6.20;;
51901;SDS011;37929;53.218;6.548;2023-05-10T01:07:37;9.98;;;6.00;;
51901;SDS011;37929;53.218;6.548;2023-05-10T01:10:03;9.13;;;5.95;;
51901;SDS011;37929;53.218;6.548;2023-05-10T01:12:30;10.48;;;6.43;;
51901;SDS011;37929;53.218;6.548;2023-05-10T01:14:56;10.77;;;6.70;;
51901;SDS011;37929;53.218;6.548;2023-05-10T01:17:23;10.00;;;6.13;;
51901;SDS011;37929;53.218;6.548;2023-05-10T01:19:49;10.68;;;7.18;;
51901;SDS011;37929;53.218;6.548;2023-05-10T01:28:16;10.98;;;6.72;;
51901;SDS011;37929;53.218;6.548;2023-05-10T01:36:08;13.38;;;7.15;;
51901;SDS011;37929;53.218;6.548;2023-05-10T01:42:25;12.73;;;7.55;;
51901;SDS011;37929;53.218;6.548;2023-05-10T01:44:39;10.70;;;6.60;;
51901;SDS011;37929;53.218;6.548;2023-05-10T01:47:13;10.20;;;6.57;;
51901;SDS011;37929;53.218;6.548;2023-05-10T01:50:10;11.70;;;6.53;;
51901;SDS011;37929;53.218;6.548;2023-05-10T01:52:41;12.00;;;6.90;;
51901;SDS011;37929;53.218;6.548;2023-05-10T01:55:11;10.93;;;7.28;;
51901;SDS011;37929;53.218;6.548;2023-05-10T01:57:42;11.50;;;6.85;;
51901;SDS011;37929;53.218;6.548;2023-05-10T02:00:09;11.23;;;7.03;;
51901;SDS011;37929;53.218;6.548;2023-05-10T02:02:37;12.25;;;7.25;;
51901;SDS011;37929;53.218;6.548;2023-05-10T02:05:07;10.70;;;6.60;;
51901;SDS011;37929;53.218;6.548;2023-05-10T02:07:35;9.80;;;6.50;;
51901;SDS011;37929;53.218;6.548;2023-05-10T02:10:02;10.30;;;7.10;;
51901;SDS011;37929;53.218;6.548;2023-05-10T02:12:30;11.00;;;7.22;;
51901;SDS011;37929;53.218;6.548;2023-05-10T02:15:00;10.98;;;7.22;;
51901;SDS011;37929;53.218;6.548;2023-05-10T02:17:30;11.50;;;7.30;;
51901;SDS011;37929;53.218;6.548;2023-05-10T02:19:58;13.82;;;7.13;;
51901;SDS011;37929;53.218;6.548;2023-05-10T02:22:28;11.50;;;7.32;;
51901;SDS011;37929;53.218;6.548;2023-05-10T02:24:55;11.57;;;7.47;;
51901;SDS011;37929;53.218;6.548;2023-05-10T02:27:23;12.30;;;7.03;;
51901;SDS011;37929;53.218;6.548;2023-05-10T02:29:52;10.60;;;6.93;;
51901;SDS011;37929;53.218;6.548;2023-05-10T02:32:19;10.38;;;7.18;;
51901;SDS011;37929;53.218;6.548;2023-05-10T02:34:49;11.40;;;7.82;;
51901;SDS011;37929;53.218;6.548;2023-05-10T02:37:18;11.25;;;7.50;;
51901;SDS011;37929;53.218;6.548;2023-05-10T02:39:47;11.77;;;7.38;;
51901;SDS011;37929;53.218;6.548;2023-05-10T02:42:18;12.00;;;7.57;;
51901;SDS011;37929;53.218;6.548;2023-05-10T02:44:48;14.32;;;8.38;;
51901;SDS011;37929;53.218;6.548;2023-05-10T02:47:17;11.75;;;7.72;;
51901;SDS011;37929;53.218;6.548;2023-05-10T02:49:44;17.45;;;9.07;;
51901;SDS011;37929;53.218;6.548;2023-05-10T02:52:09;17.25;;;9.43;;
51901;SDS011;37929;53.218;6.548;2023-05-10T02:54:41;16.08;;;8.60;;
51901;SDS011;37929;53.218;6.548;2023-05-10T02:57:15;12.38;;;7.53;;
51901;SDS011;37929;53.218;6.548;2023-05-10T02:59:45;15.45;;;8.80;;
51901;SDS011;37929;53.218;6.548;2023-05-10T03:02:14;15.98;;;9.30;;
51901;SDS011;37929;53.218;6.548;2023-05-10T03:04:40;15.30;;;9.00;;
51901;SDS011;37929;53.218;6.548;2023-05-10T03:07:05;16.25;;;9.77;;
51901;SDS011;37929;53.218;6.548;2023-05-10T03:09:32;19.02;;;10.43;;
51901;SDS011;37929;53.218;6.548;2023-05-10T03:12:15;18.13;;;9.93;;
51901;SDS011;37929;53.218;6.548;2023-05-10T03:20:51;17.80;;;9.82;;
51901;SDS011;37929;53.218;6.548;2023-05-10T03:25:42;18.42;;;10.60;;
51901;SDS011;37929;53.218;6.548;2023-05-10T03:28:09;18.52;;;9.77;;
51901;SDS011;37929;53.218;6.548;2023-05-10T03:30:35;17.17;;;9.60;;
51901;SDS011;37929;53.218;6.548;2023-05-10T03:33:05;18.05;;;10.30;;
51901;SDS011;37929;53.218;6.548;2023-05-10T03:35:31;18.05;;;9.88;;
51901;SDS011;37929;53.218;6.548;2023-05-10T03:37:57;18.75;;;10.02;;
51901;SDS011;37929;53.218;6.548;2023-05-10T03:40:23;20.13;;;10.10;;
51901;SDS011;37929;53.218;6.548;2023-05-10T03:42:50;19.23;;;10.52;;
51901;SDS011;37929;53.218;6.548;2023-05-10T03:45:16;17.40;;;10.38;;
51901;SDS011;37929;53.218;6.548;2023-05-10T03:47:41;20.70;;;10.75;;
51901;SDS011;37929;53.218;6.548;2023-05-10T03:50:07;24.27;;;11.43;;
51901;SDS011;37929;53.218;6.548;2023-05-10T03:52:33;19.75;;;11.00;;
51901;SDS011;37929;53.218;6.548;2023-05-10T03:54:59;21.02;;;10.77;;
51901;SDS011;37929;53.218;6.548;2023-05-10T03:57:24;18.40;;;10.50;;
51901;SDS011;37929;53.218;6.548;2023-05-10T03:59:50;22.08;;;11.48;;
51901;SDS011;37929;53.218;6.548;2023-05-10T04:02:16;23.98;;;11.20;;
51901;SDS011;37929;53.218;6.548;2023-05-10T04:04:41;23.58;;;11.32;;
51901;SDS011;37929;53.218;6.548;2023-05-10T04:07:08;21.92;;;11.70;;
51901;SDS011;37929;53.218;6.548;2023-05-10T04:09:35;21.45;;;9.38;;
51901;SDS011;37929;53.218;6.548;2023-05-10T04:12:01;18.98;;;9.35;;
51901;SDS011;37929;53.218;6.548;2023-05-10T04:14:27;19.35;;;9.63;;
51901;SDS011;37929;53.218;6.548;2023-05-10T04:16:53;17.65;;;8.23;;
51901;SDS011;37929;53.218;6.548;2023-05-10T04:19:18;12.32;;;7.38;;
51901;SDS011;37929;53.218;6.548;2023-05-10T04:21:44;11.45;;;6.72;;
51901;SDS011;37929;53.218;6.548;2023-05-10T04:24:10;11.40;;;6.90;;
51901;SDS011;37929;53.218;6.548;2023-05-10T04:26:36;10.05;;;6.30;;
51901;SDS011;37929;53.218;6.548;2023-05-10T04:29:01;10.73;;;6.40;;
51901;SDS011;37929;53.218;6.548;2023-05-10T04:31:27;11.55;;;6.18;;
51901;SDS011;37929;53.218;6.548;2023-05-10T04:33:53;9.35;;;5.85;;
51901;SDS011;37929;53.218;6.548;2023-05-10T04:36:19;7.13;;;5.60;;
51901;SDS011;37929;53.218;6.548;2023-05-10T04:38:44;11.38;;;6.60;;
51901;SDS011;37929;53.218;6.548;2023-05-10T04:41:10;7.57;;;5.47;;
51901;SDS011;37929;53.218;6.548;2023-05-10T04:43:36;7.53;;;5.70;;
51901;SDS011;37929;53.218;6.548;2023-05-10T04:46:03;8.48;;;5.47;;
51901;SDS011;37929;53.218;6.548;2023-05-10T04:48:29;8.48;;;5.20;;
51901;SDS011;37929;53.218;6.548;2023-05-10T04:50:55;6.63;;;5.00;;
51901;SDS011;37929;53.218;6.548;2023-05-10T04:53:21;10.07;;;5.70;;
51901;SDS011;37929;53.218;6.548;2023-05-10T04:55:47;7.35;;;5.22;;
51901;SDS011;37929;53.218;6.548;2023-05-10T04:58:13;8.07;;;5.28;;
51901;SDS011;37929;53.218;6.548;2023-05-10T05:00:38;6.45;;;5.22;;
51901;SDS011;37929;53.218;6.548;2023-05-10T05:03:04;7.45;;;5.30;;
51901;SDS011;37929;53.218;6.548;2023-05-10T05:05:31;7.38;;;4.97;;
51901;SDS011;37929;53.218;6.548;2023-05-10T05:07:56;6.45;;;5.13;;
51901;SDS011;37929;53.218;6.548;2023-05-10T05:10:22;10.20;;;5.20;;
51901;SDS011;37929;53.218;6.548;2023-05-10T05:12:48;8.25;;;5.60;;
51901;SDS011;37929;53.218;6.548;2023-05-10T05:15:14;7.95;;;5.90;;
51901;SDS011;37929;53.218;6.548;2023-05-10T05:17:41;8.85;;;5.53;;
51901;SDS011;37929;53.218;6.548;2023-05-10T05:20:08;8.93;;;5.47;;
51901;SDS011;37929;53.218;6.548;2023-05-10T05:22:35;7.28;;;5.53;;
51901;SDS011;37929;53.218;6.548;2023-05-10T05:25:01;9.00;;;5.93;;
51901;SDS011;37929;53.218;6.548;2023-05-10T05:27:28;9.35;;;5.63;;
51901;SDS011;37929;53.218;6.548;2023-05-10T05:29:55;8.60;;;5.07;;
51901;SDS011;37929;53.218;6.548;2023-05-10T05:32:21;8.07;;;5.22;;
51901;SDS011;37929;53.218;6.548;2023-05-10T05:34:47;7.75;;;4.93;;
51901;SDS011;37929;53.218;6.548;2023-05-10T05:37:14;8.98;;;5.50;;
51901;SDS011;37929;53.218;6.548;2023-05-10T05:39:41;8.40;;;5.22;;
51901;SDS011;37929;53.218;6.548;2023-05-10T05:42:08;7.72;;;5.47;;
51901;SDS011;37929;53.218;6.548;2023-05-10T05:44:34;8.80;;;5.22;;
51901;SDS011;37929;53.218;6.548;2023-05-10T05:46:59;11.60;;;5.63;;
51901;SDS011;37929;53.218;6.548;2023-05-10T05:49:25;8.95;;;5.65;;
51901;SDS011;37929;53.218;6.548;2023-05-10T05:51:51;8.65;;;5.47;;
51901;SDS011;37929;53.218;6.548;2023-05-10T05:54:17;6.72;;;4.47;;
51901;SDS011;37929;53.218;6.548;2023-05-10T05:56:43;9.05;;;4.95;;
51901;SDS011;37929;53.218;6.548;2023-05-10T05:59:09;7.32;;;4.72;;
51901;SDS011;37929;53.218;6.548;2023-05-10T06:01:35;7.63;;;4.95;;
51901;SDS011;37929;53.218;6.548;2023-05-10T06:04:01;6.93;;;5.13;;
51901;SDS011;37929;53.218;6.548;2023-05-10T06:06:27;7.75;;;4.10;;
51901;SDS011;37929;53.218;6.548;2023-05-10T06:08:53;6.22;;;4.03;;
51901;SDS011;37929;53.218;6.548;2023-05-10T06:11:19;4.63;;;3.28;;
51901;SDS011;37929;53.218;6.548;2023-05-10T06:13:46;5.18;;;2.97;;
51901;SDS011;37929;53.218;6.548;2023-05-10T06:16:12;3.28;;;2.60;;
51901;SDS011;37929;53.218;6.548;2023-05-10T06:18:38;4.47;;;2.35;;
51901;SDS011;37929;53.218;6.548;2023-05-10T06:21:04;3.45;;;2.38;;
51901;SDS011;37929;53.218;6.548;2023-05-10T06:23:30;2.78;;;1.85;;
51901;SDS011;37929;53.218;6.548;2023-05-10T06:25:56;2.70;;;1.92;;
51901;SDS011;37929;53.218;6.548;2023-05-10T06:28:21;2.85;;;1.95;;
51901;SDS011;37929;53.218;6.548;2023-05-10T06:30:47;3.17;;;2.20;;
51901;SDS011;37929;53.218;6.548;2023-05-10T06:33:13;3.05;;;2.33;;
51901;SDS011;37929;53.218;6.548;2023-05-10T06:35:39;3.85;;;3.05;;
51901;SDS011;37929;53.218;6.548;2023-05-10T06:38:05;7.82;;;4.68;;
51901;SDS011;37929;53.218;6.548;2023-05-10T06:40:30;9.23;;;6.07;;
51901;SDS011;37929;53.218;6.548;2023-05-10T06:42:56;9.85;;;5.75;;
51901;SDS011;37929;53.218;6.548;2023-05-10T06:45:22;11.98;;;7.03;;
51901;SDS011;37929;53.218;6.548;2023-05-10T06:47:48;10.45;;;6.45;;
51901;SDS011;37929;53.218;6.548;2023-05-10T06:50:14;12.55;;;6.28;;
51901;SDS011;37929;53.218;6.548;2023-05-10T06:52:40;8.63;;;6.03;;
51901;SDS011;37929;53.218;6.548;2023-05-10T06:55:06;10.05;;;6.07;;
51901;SDS011;37929;53.218;6.548;2023-05-10T06:57:32;9.73;;;6.60;;
51901;SDS011;37929;53.218;6.548;2023-05-10T06:59:58;10.00;;;6.50;;
51901;SDS011;37929;53.218;6.548;2023-05-10T07:02:24;11.32;;;6.45;;
51901;SDS011;37929;53.218;6.548;2023-05-10T07:04:50;8.82;;;5.63;;
51901;SDS011;37929;53.218;6.548;2023-05-10T07:07:17;8.57;;;5.60;;
51901;SDS011;37929;53.218;6.548;2023-05-10T07:09:42;9.05;;;5.78;;
51901;SDS011;37929;53.218;6.548;2023-05-10T07:12:08;8.00;;;4.93;;
51901;SDS011;37929;53.218;6.548;2023-05-10T07:14:34;7.40;;;4.93;;
51901;SDS011;37929;53.218;6.548;2023-05-10T07:17:00;7.32;;;5.40;;
51901;SDS011;37929;53.218;6.548;2023-05-10T07:19:26;8.60;;;5.15;;
51901;SDS011;37929;53.218;6.548;2023-05-10T07:21:52;6.57;;;4.80;;
51901;SDS011;37929;53.218;6.548;2023-05-10T07:24:17;6.80;;;4.70;;
51901;SDS011;37929;53.218;6.548;2023-05-10T07:26:43;7.97;;;4.50;;
51901;SDS011;37929;53.218;6.548;2023-05-10T07:29:09;6.75;;;4.38;;
51901;SDS011;37929;53.218;6.548;2023-05-10T07:31:35;6.22;;;4.57;;
51901;SDS011;37929;53.218;6.548;2023-05-10T07:34:00;7.50;;;4.38;;
51901;SDS011;37929;53.218;6.548;2023-05-10T07:36:26;6.95;;;4.30;;
51901;SDS011;37929;53.218;6.548;2023-05-10T07:38:52;6.00;;;4.15;;
51901;SDS011;37929;53.218;6.548;2023-05-10T07:41:18;8.07;;;3.70;;
51901;SDS011;37929;53.218;6.548;2023-05-10T07:43:44;4.75;;;3.58;;
51901;SDS011;37929;53.218;6.548;2023-05-10T07:46:09;4.78;;;3.63;;
51901;SDS011;37929;53.218;6.548;2023-05-10T07:48:36;5.63;;;3.40;;
51901;SDS011;37929;53.218;6.548;2023-05-10T07:51:02;4.75;;;3.40;;
51901;SDS011;37929;53.218;6.548;2023-05-10T07:53:28;4.43;;;3.25;;
51901;SDS011;37929;53.218;6.548;2023-05-10T07:55:54;4.13;;;2.80;;
51901;SDS011;37929;53.218;6.548;2023-05-10T07:58:44;4.47;;;3.35;;
51901;SDS011;37929;53.218;6.548;2023-05-10T08:01:13;8.23;;;4.32;;
51901;SDS011;37929;53.218;6.548;2023-05-10T08:03:38;5.57;;;3.53;;
51901;SDS011;37929;53.218;6.548;2023-05-10T08:06:04;7.78;;;4.20;;
51901;SDS011;37929;53.218;6.548;2023-05-10T08:08:31;5.35;;;4.15;;
51901;SDS011;37929;53.218;6.548;2023-05-10T08:10:56;5.90;;;3.88;;
51901;SDS011;37929;53.218;6.548;2023-05-10T08:13:23;6.88;;;4.05;;
51901;SDS011;37929;53.218;6.548;2023-05-10T08:15:48;5.25;;;3.63;;
51901;SDS011;37929;53.218;6.548;2023-05-10T08:18:14;7.72;;;4.25;;
51901;SDS011;37929;53.218;6.548;2023-05-10T08:20:40;7.10;;;4.20;;
51901;SDS011;37929;53.218;6.548;2023-05-10T08:23:06;8.25;;;4.70;;
51901;SDS011;37929;53.218;6.548;2023-05-10T08:25:31;7.15;;;4.15;;
51901;SDS011;37929;53.218;6.548;2023-05-10T08:27:57;8.68;;;4.65;;
51901;SDS011;37929;53.218;6.548;2023-05-10T08:30:23;7.38;;;4.57;;
51901;SDS011;37929;53.218;6.548;2023-05-10T08:32:48;6.72;;;4.32;;
51901;SDS011;37929;53.218;6.548;2023-05-10T08:35:15;6.03;;;4.15;;
51901;SDS011;37929;53.218;6.548;2023-05-10T08:37:41;6.97;;;4.55;;
51901;SDS011;37929;53.218;6.548;2023-05-10T08:40:07;9.80;;;4.82;;
51901;SDS011;37929;53.218;6.548;2023-05-10T08:42:36;8.10;;;4.63;;
51901;SDS011;37929;53.218;6.548;2023-05-10T08:45:06;6.32;;;4.45;;
51901;SDS011;37929;53.218;6.548;2023-05-10T08:47:34;6.47;;;4.05;;
51901;SDS011;37929;53.218;6.548;2023-05-10T08:50:03;6.22;;;4.30;;
51901;SDS011;37929;53.218;6.548;2023-05-10T08:52:30;5.90;;;3.58;;
51901;SDS011;37929;53.218;6.548;2023-05-10T08:55:00;5.70;;;3.45;;
51901;SDS011;37929;53.218;6.548;2023-05-10T08:57:26;5.10;;;3.60;;
51901;SDS011;37929;53.218;6.548;2023-05-10T08:59:52;5.72;;;3.60;;
51901;SDS011;37929;53.218;6.548;2023-05-10T09:02:18;5.28;;;3.72;;
51901;SDS011;37929;53.218;6.548;2023-05-10T09:04:45;6.65;;;3.75;;
51901;SDS011;37929;53.218;6.548;2023-05-10T09:07:10;6.78;;;4.10;;
51901;SDS011;37929;53.218;6.548;2023-05-10T09:09:37;6.93;;;4.55;;
51901;SDS011;37929;53.218;6.548;2023-05-10T09:12:03;7.30;;;4.22;;
51901;SDS011;37929;53.218;6.548;2023-05-10T09:14:29;8.23;;;4.38;;
51901;SDS011;37929;53.218;6.548;2023-05-10T09:16:59;6.68;;;4.68;;
51901;SDS011;37929;53.218;6.548;2023-05-10T09:19:25;7.38;;;4.85;;
51901;SDS011;37929;53.218;6.548;2023-05-10T09:21:50;9.60;;;4.88;;
51901;SDS011;37929;53.218;6.548;2023-05-10T09:24:20;8.95;;;4.72;;
51901;SDS011;37929;53.218;6.548;2023-05-10T09:26:50;7.50;;;5.18;;
51901;SDS011;37929;53.218;6.548;2023-05-10T09:29:16;7.40;;;4.78;;
51901;SDS011;37929;53.218;6.548;2023-05-10T09:31:46;7.82;;;4.72;;
51901;SDS011;37929;53.218;6.548;2023-05-10T09:34:19;7.13;;;4.65;;
51901;SDS011;37929;53.218;6.548;2023-05-10T09:36:53;6.70;;;4.30;;
51901;SDS011;37929;53.218;6.548;2023-05-10T09:39:19;8.10;;;5.10;;
51901;SDS011;37929;53.218;6.548;2023-05-10T09:41:45;8.55;;;5.63;;
51901;SDS011;37929;53.218;6.548;2023-05-10T09:44:14;8.32;;;5.18;;
51901;SDS011;37929;53.218;6.548;2023-05-10T09:46:48;8.82;;;4.95;;
51901;SDS011;37929;53.218;6.548;2023-05-10T09:49:14;9.00;;;5.28;;
51901;SDS011;37929;53.218;6.548;2023-05-10T09:51:40;6.70;;;4.45;;
51901;SDS011;37929;53.218;6.548;2023-05-10T09:54:10;6.75;;;4.22;;
51901;SDS011;37929;53.218;6.548;2023-05-10T09:56:37;6.45;;;4.40;;
51901;SDS011;37929;53.218;6.548;2023-05-10T09:59:05;6.53;;;4.00;;
51901;SDS011;37929;53.218;6.548;2023-05-10T10:01:33;7.35;;;4.13;;
51901;SDS011;37929;53.218;6.548;2023-05-10T10:04:00;6.97;;;4.18;;
51901;SDS011;37929;53.218;6.548;2023-05-10T10:06:38;7.40;;;4.38;;
51901;SDS011;37929;53.218;6.548;2023-05-10T10:09:05;7.53;;;4.40;;
51901;SDS011;37929;53.218;6.548;2023-05-10T10:11:33;16.58;;;10.85;;
51901;SDS011;37929;53.218;6.548;2023-05-10T10:14:00;12.00;;;5.72;;
51901;SDS011;37929;53.218;6.548;2023-05-10T10:16:27;10.70;;;4.28;;
51901;SDS011;37929;53.218;6.548;2023-05-10T10:18:54;5.93;;;3.47;;
51901;SDS011;37929;53.218;6.548;2023-05-10T10:21:23;5.47;;;3.03;;
51901;SDS011;37929;53.218;6.548;2023-05-10T10:23:49;5.13;;;3.40;;
51901;SDS011;37929;53.218;6.548;2023-05-10T10:26:17;4.75;;;3.53;;
51901;SDS011;37929;53.218;6.548;2023-05-10T10:31:45;10.07;;;4.57;;
51901;SDS011;37929;53.218;6.548;2023-05-10T10:34:44;5.85;;;4.20;;
51901;SDS011;37929;53.218;6.548;2023-05-10T10:37:04;6.35;;;4.00;;
51901;SDS011;37929;53.218;6.548;2023-05-10T10:39:31;9.02;;;5.03;;
51901;SDS011;37929;53.218;6.548;2023-05-10T10:41:58;8.75;;;5.07;;
51901;SDS011;37929;53.218;6.548;2023-05-10T10:49:50;7.20;;;4.93;;
51901;SDS011;37929;53.218;6.548;2023-05-10T10:52:23;7.97;;;5.53;;
51901;SDS011;37929;53.218;6.548;2023-05-10T10:57:42;7.72;;;5.35;;
51901;SDS011;37929;53.218;6.548;2023-05-10T11:03:14;9.35;;;6.20;;
51901;SDS011;37929;53.218;6.548;2023-05-10T11:05:49;9.57;;;6.55;;
51901;SDS011;37929;53.218;6.548;2023-05-10T11:08:26;10.10;;;6.65;;
51901;SDS011;37929;53.218;6.548;2023-05-10T11:16:10;9.88;;;6.18;;
51901;SDS011;37929;53.218;6.548;2023-05-10T11:18:36;11.13;;;6.30;;
51901;SDS011;37929;53.218;6.548;2023-05-10T11:21:02;9.30;;;6.03;;
51901;SDS011;37929;53.218;6.548;2023-05-10T11:23:30;10.40;;;6.63;;
51901;SDS011;37929;53.218;6.548;2023-05-10T11:26:17;8.98;;;6.22;;
51901;SDS011;37929;53.218;6.548;2023-05-10T11:31:35;10.90;;;6.60;;
51901;SDS011;37929;53.218;6.548;2023-05-10T11:34:10;10.55;;;6.65;;
51901;SDS011;37929;53.218;6.548;2023-05-10T11:36:36;12.00;;;6.55;;
51901;SDS011;37929;53.218;6.548;2023-05-10T11:39:02;10.90;;;6.70;;
51901;SDS011;37929;53.218;6.548;2023-05-10T11:41:30;11.45;;;7.28;;
51901;SDS011;37929;53.218;6.548;2023-05-10T11:43:56;9.55;;;6.60;;
51901;SDS011;37929;53.218;6.548;2023-05-10T11:46:27;11.82;;;6.80;;
51901;SDS011;37929;53.218;6.548;2023-05-10T11:48:55;12.20;;;7.10;;
51901;SDS011;37929;53.218;6.548;2023-05-10T11:51:23;9.95;;;6.28;;
51901;SDS011;37929;53.218;6.548;2023-05-10T11:53:54;10.40;;;6.90;;
51901;SDS011;37929;53.218;6.548;2023-05-10T11:56:21;13.70;;;7.15;;
51901;SDS011;37929;53.218;6.548;2023-05-10T11:58:52;11.35;;;7.15;;
51901;SDS011;37929;53.218;6.548;2023-05-10T12:01:20;11.73;;;6.68;;
51901;SDS011;37929;53.218;6.548;2023-05-10T12:03:47;11.13;;;6.65;;
51901;SDS011;37929;53.218;6.548;2023-05-10T12:06:13;11.02;;;6.35;;
51901;SDS011;37929;53.218;6.548;2023-05-10T12:08:43;9.15;;;6.53;;
51901;SDS011;37929;53.218;6.548;2023-05-10T12:11:11;10.80;;;6.63;;
51901;SDS011;37929;53.218;6.548;2023-05-10T12:13:42;10.25;;;6.85;;
51901;SDS011;37929;53.218;6.548;2023-05-10T12:16:28;13.57;;;7.37;;
51901;SDS011;37929;53.218;6.548;2023-05-10T12:18:58;11.68;;;7.55;;
51901;SDS011;37929;53.218;6.548;2023-05-10T12:21:25;11.85;;;6.32;;
51901;SDS011;37929;53.218;6.548;2023-05-10T12:24:02;11.27;;;6.77;;
51901;SDS011;37929;53.218;6.548;2023-05-10T12:26:29;10.52;;;6.82;;
51901;SDS011;37929;53.218;6.548;2023-05-10T12:29:11;10.95;;;6.78;;
51901;SDS011;37929;53.218;6.548;2023-05-10T12:31:59;12.38;;;6.88;;
51901;SDS011;37929;53.218;6.548;2023-05-10T12:34:25;11.18;;;7.35;;
51901;SDS011;37929;53.218;6.548;2023-05-10T12:36:52;9.75;;;7.43;;
51901;SDS011;37929;53.218;6.548;2023-05-10T12:39:18;14.38;;;7.82;;
51901;SDS011;37929;53.218;6.548;2023-05-10T12:41:44;14.18;;;7.90;;
51901;SDS011;37929;53.218;6.548;2023-05-10T12:44:10;13.45;;;7.65;;
51901;SDS011;37929;53.218;6.548;2023-05-10T12:46:36;12.10;;;6.85;;
51901;SDS011;37929;53.218;6.548;2023-05-10T12:49:01;14.85;;;7.80;;
51901;SDS011;37929;53.218;6.548;2023-05-10T12:51:27;10.88;;;7.35;;
51901;SDS011;37929;53.218;6.548;2023-05-10T12:53:53;12.75;;;7.28;;
51901;SDS011;37929;53.218;6.548;2023-05-10T12:56:19;10.82;;;6.68;;
51901;SDS011;37929;53.218;6.548;2023-05-10T12:58:45;12.77;;;7.30;;
51901;SDS011;37929;53.218;6.548;2023-05-10T13:01:13;12.52;;;7.13;;
51901;SDS011;37929;53.218;6.548;2023-05-10T13:03:39;10.52;;;7.03;;
51901;SDS011;37929;53.218;6.548;2023-05-10T13:06:05;11.73;;;7.55;;
51901;SDS011;37929;53.218;6.548;2023-05-10T13:08:31;11.75;;;7.35;;
51901;SDS011;37929;53.218;6.548;2023-05-10T13:11:01;13.77;;;7.47;;
51901;SDS011;37929;53.218;6.548;2023-05-10T13:13:27;10.80;;;6.70;;
51901;SDS011;37929;53.218;6.548;2023-05-10T13:15:53;11.75;;;7.32;;
51901;SDS011;37929;53.218;6.548;2023-05-10T13:18:19;9.80;;;6.50;;
51901;SDS011;37929;53.218;6.548;2023-05-10T13:20:45;10.07;;;6.25;;
51901;SDS011;37929;53.218;6.548;2023-05-10T13:23:11;9.82;;;6.38;;
51901;SDS011;37929;53.218;6.548;2023-05-10T13:25:36;11.80;;;6.78;;
51901;SDS011;37929;53.218;6.548;2023-05-10T13:28:02;8.63;;;6.30;;
51901;SDS011;37929;53.218;6.548;2023-05-10T13:30:28;10.65;;;6.40;;
51901;SDS011;37929;53.218;6.548;2023-05-10T13:32:54;10.55;;;6.63;;
51901;SDS011;37929;53.218;6.548;2023-05-10T13:35:20;9.38;;;6.38;;
51901;SDS011;37929;53.218;6.548;2023-05-10T13:37:45;10.13;;;6.70;;
51901;SDS011;37929;53.218;6.548;2023-05-10T13:40:11;10.52;;;6.30;;
51901;SDS011;37929;53.218;6.548;2023-05-10T13:42:37;13.15;;;6.72;;
51901;SDS011;37929;53.218;6.548;2023-05-10T13:45:03;10.32;;;6.25;;
51901;SDS011;37929;53.218;6.548;2023-05-10T13:47:29;10.50;;;7.50;;
51901;SDS011;37929;53.218;6.548;2023-05-10T13:49:55;9.18;;;5.65;;
51901;SDS011;37929;53.218;6.548;2023-05-10T13:52:22;10.98;;;6.55;;
51901;SDS011;37929;53.218;6.548;2023-05-10T13:54:48;9.38;;;5.78;;
51901;SDS011;37929;53.218;6.548;2023-05-10T13:57:14;14.35;;;8.02;;
51901;SDS011;37929;53.218;6.548;2023-05-10T13:59:41;10.98;;;6.45;;
51901;SDS011;37929;53.218;6.548;2023-05-10T14:02:07;11.15;;;7.18;;
51901;SDS011;37929;53.218;6.548;2023-05-10T14:04:33;10.38;;;6.75;;
51901;SDS011;37929;53.218;6.548;2023-05-10T14:07:00;11.98;;;6.55;;
51901;SDS011;37929;53.218;6.548;2023-05-10T14:09:26;9.88;;;6.28;;
51901;SDS011;37929;53.218;6.548;2023-05-10T14:11:52;10.20;;;6.50;;
51901;SDS011;37929;53.218;6.548;2023-05-10T14:14:17;14.20;;;8.80;;
51901;SDS011;37929;53.218;6.548;2023-05-10T14:16:44;10.50;;;7.28;;
51901;SDS011;37929;53.218;6.548;2023-05-10T14:19:10;12.05;;;6.85;;
51901;SDS011;37929;53.218;6.548;2023-05-10T14:21:36;11.80;;;6.97;;
51901;SDS011;37929;53.218;6.548;2023-05-10T14:24:02;11.10;;;6.65;;
51901;SDS011;37929;53.218;6.548;2023-05-10T14:26:28;11.60;;;7.47;;
51901;SDS011;37929;53.218;6.548;2023-05-10T14:28:54;11.23;;;7.07;;
51901;SDS011;37929;53.218;6.548;2023-05-10T14:31:20;12.23;;;7.47;;
51901;SDS011;37929;53.218;6.548;2023-05-10T14:33:48;12.00;;;7.00;;
51901;SDS011;37929;53.218;6.548;2023-05-10T14:36:13;13.77;;;7.97;;
51901;SDS011;37929;53.218;6.548;2023-05-10T14:38:39;11.07;;;6.95;;
51901;SDS011;37929;53.218;6.548;2023-05-10T14:41:05;10.27;;;6.72;;
51901;SDS011;37929;53.218;6.548;2023-05-10T14:43:32;11.18;;;6.65;;
51901;SDS011;37929;53.218;6.548;2023-05-10T14:45:58;10.32;;;6.65;;
51901;SDS011;37929;53.218;6.548;2023-05-10T14:48:23;13.23;;;7.07;;
51901;SDS011;37929;53.218;6.548;2023-05-10T14:50:49;12.15;;;6.85;;
51901;SDS011;37929;53.218;6.548;2023-05-10T14:53:17;9.98;;;6.70;;
51901;SDS011;37929;53.218;6.548;2023-05-10T14:55:43;13.68;;;8.30;;
51901;SDS011;37929;53.218;6.548;2023-05-10T14:58:09;11.88;;;6.45;;
51901;SDS011;37929;53.218;6.548;2023-05-10T15:00:37;10.98;;;7.00;;
51901;SDS011;37929;53.218;6.548;2023-05-10T15:03:03;12.63;;;7.45;;
51901;SDS011;37929;53.218;6.548;2023-05-10T15:05:28;11.55;;;7.13;;
51901;SDS011;37929;53.218;6.548;2023-05-10T15:07:57;12.48;;;7.72;;
51901;SDS011;37929;53.218;6.548;2023-05-10T15:10:23;12.50;;;7.90;;
51901;SDS011;37929;53.218;6.548;2023-05-10T15:12:49;14.23;;;8.02;;
51901;SDS011;37929;53.218;6.548;2023-05-10T15:15:15;12.82;;;7.80;;
51901;SDS011;37929;53.218;6.548;2023-05-10T15:17:41;12.68;;;8.48;;
51901;SDS011;37929;53.218;6.548;2023-05-10T15:20:07;12.32;;;8.45;;
51901;SDS011;37929;53.218;6.548;2023-05-10T15:22:33;13.10;;;7.65;;
51901;SDS011;37929;53.218;6.548;2023-05-10T15:24:58;12.45;;;7.60;;
51901;SDS011;37929;53.218;6.548;2023-05-10T15:27:25;11.98;;;7.70;;